createdAt,value
2017-10-26T00:01:00.725Z,13.70
2017-10-26T00:03:34.582Z,13.60
2017-10-26T00:06:09.135Z,13.60
2017-10-26T00:08:42.814Z,13.60
2017-10-26T00:11:16.553Z,13.60
2017-10-26T00:13:51.209Z,13.60
2017-10-26T00:16:24.921Z,13.70
2017-10-26T00:18:58.769Z,13.60
2017-10-26T00:21:32.482Z,13.60
2017-10-26T00:24:07.049Z,13.60
2017-10-26T00:26:40.785Z,13.60
2017-10-26T00:29:14.595Z,13.30
2017-10-26T00:31:48.236Z,13.60
2017-10-26T00:36:58.403Z,13.60
2017-10-26T00:39:32.073Z,13.60
2017-10-26T00:42:05.914Z,13.60
2017-10-26T00:44:39.766Z,13.60
2017-10-26T00:47:13.629Z,13.60
2017-10-26T00:49:47.444Z,13.60
2017-10-26T00:52:21.182Z,13.70
2017-10-26T00:54:55.092Z,13.70
2017-10-26T00:57:28.866Z,13.70
2017-10-26T01:00:03.285Z,13.80
2017-10-26T01:02:37.024Z,13.80
2017-10-26T01:05:10.830Z,13.80
2017-10-26T01:07:44.573Z,13.90
2017-10-26T01:10:18.830Z,13.80
2017-10-26T01:12:53.410Z,13.80
2017-10-26T01:15:28.035Z,13.80
2017-10-26T01:18:01.805Z,13.80
2017-10-26T01:20:35.576Z,13.80
2017-10-26T01:23:09.449Z,13.80
2017-10-26T01:25:43.285Z,13.90
2017-10-26T01:28:17.069Z,13.90
2017-10-26T01:30:50.660Z,14.00
2017-10-26T01:33:24.434Z,14.00
2017-10-26T01:35:58.313Z,13.90
2017-10-26T01:38:32.016Z,13.90
2017-10-26T01:41:05.890Z,13.90
2017-10-26T01:43:39.633Z,13.80
2017-10-26T01:46:13.533Z,13.80
2017-10-26T01:48:47.449Z,13.70
2017-10-26T01:51:21.178Z,13.70
2017-10-26T01:53:54.833Z,13.70
2017-10-26T01:56:28.613Z,13.60
2017-10-26T01:59:02.396Z,13.60
2017-10-26T02:01:36.275Z,13.60
2017-10-26T02:04:10.036Z,13.60
2017-10-26T02:06:43.893Z,13.50
2017-10-26T02:09:18.477Z,13.50
2017-10-26T02:11:52.376Z,13.50
2017-10-26T02:14:26.149Z,13.50
2017-10-26T02:16:59.854Z,13.50
2017-10-26T02:19:33.695Z,13.50
2017-10-26T02:22:07.318Z,13.50
2017-10-26T02:24:41.125Z,13.50
2017-10-26T02:27:14.859Z,13.40
2017-10-26T02:30:00.709Z,13.40
2017-10-26T02:32:34.482Z,13.40
2017-10-26T02:35:08.302Z,13.30
2017-10-26T02:37:41.947Z,13.40
2017-10-26T02:40:15.836Z,13.40
2017-10-26T02:42:49.594Z,13.30
2017-10-26T02:45:23.449Z,13.30
2017-10-26T02:47:57.208Z,13.30
2017-10-26T02:50:31.870Z,13.30
2017-10-26T02:53:05.568Z,13.30
2017-10-26T02:55:39.308Z,13.30
2017-10-26T02:58:13.083Z,13.40
2017-10-26T03:00:47.511Z,13.40
2017-10-26T03:03:21.589Z,13.40
2017-10-26T03:05:55.440Z,13.40
2017-10-26T03:08:29.913Z,13.40
2017-10-26T03:11:04.334Z,13.50
2017-10-26T03:13:39.007Z,13.40
2017-10-26T03:16:12.944Z,13.40
2017-10-26T03:18:47.528Z,13.40
2017-10-26T03:21:21.349Z,13.50
2017-10-26T03:23:56.676Z,13.50
2017-10-26T03:26:30.393Z,13.40
2017-10-26T03:29:04.137Z,13.40
2017-10-26T03:31:38.671Z,13.40
2017-10-26T03:34:12.901Z,13.40
2017-10-26T03:36:46.763Z,13.40
2017-10-26T03:39:20.494Z,13.50
2017-10-26T03:41:55.009Z,13.50
2017-10-26T03:44:30.418Z,13.40
2017-10-26T03:47:04.157Z,13.40
2017-10-26T03:49:38.033Z,13.40
2017-10-26T03:52:11.683Z,13.40
2017-10-26T03:54:45.366Z,13.40
2017-10-26T03:57:19.878Z,13.30
2017-10-26T03:59:53.653Z,13.40
2017-10-26T04:02:27.525Z,13.40
2017-10-26T04:05:01.356Z,13.30
2017-10-26T04:07:36.038Z,13.40
2017-10-26T04:10:09.789Z,13.40
2017-10-26T04:12:43.677Z,13.40
2017-10-26T04:15:17.413Z,13.40
2017-10-26T04:17:51.022Z,13.40
2017-10-26T04:20:24.847Z,13.40
2017-10-26T04:22:58.702Z,13.40
2017-10-26T04:25:33.220Z,13.40
2017-10-26T04:28:07.801Z,13.40
2017-10-26T04:30:45.398Z,13.40
2017-10-26T04:33:23.469Z,13.40
2017-10-26T04:35:57.263Z,13.40
2017-10-26T04:38:31.854Z,13.40
2017-10-26T04:41:05.537Z,13.40
2017-10-26T04:43:39.405Z,13.40
2017-10-26T04:46:13.917Z,13.30
2017-10-26T04:48:47.535Z,13.40
2017-10-26T04:51:21.275Z,13.40
2017-10-26T04:53:54.925Z,13.30
2017-10-26T04:56:29.409Z,13.30
2017-10-26T04:59:03.522Z,13.30
2017-10-26T05:01:38.006Z,13.40
2017-10-26T05:04:11.915Z,13.40
2017-10-26T05:06:45.760Z,13.40
2017-10-26T05:09:19.589Z,13.40
2017-10-26T05:11:53.807Z,13.40
2017-10-26T05:14:27.566Z,13.40
2017-10-26T05:17:01.971Z,13.40
2017-10-26T05:19:35.643Z,13.40
2017-10-26T05:22:09.426Z,13.40
2017-10-26T05:24:43.083Z,13.40
2017-10-26T05:27:16.822Z,13.30
2017-10-26T05:29:50.613Z,13.30
2017-10-26T05:32:24.402Z,13.40
2017-10-26T05:34:58.177Z,13.30
2017-10-26T05:37:32.170Z,13.30
2017-10-26T05:40:05.932Z,13.30
2017-10-26T05:42:40.477Z,13.30
2017-10-26T05:45:14.324Z,13.30
2017-10-26T05:47:48.203Z,13.30
2017-10-26T05:52:57.047Z,13.30
2017-10-26T05:55:31.415Z,13.30
2017-10-26T05:58:05.958Z,13.30
2017-10-26T06:00:40.335Z,13.30
2017-10-26T06:03:14.535Z,13.30
2017-10-26T06:05:48.225Z,13.30
2017-10-26T06:08:22.722Z,13.30
2017-10-26T06:10:56.339Z,13.30
2017-10-26T06:13:31.042Z,13.30
2017-10-26T06:16:04.984Z,13.30
2017-10-26T06:18:38.666Z,13.30
2017-10-26T06:21:13.277Z,13.40
2017-10-26T06:23:46.885Z,13.40
2017-10-26T06:26:20.784Z,13.40
2017-10-26T06:28:54.601Z,13.40
2017-10-26T06:31:29.214Z,13.40
2017-10-26T06:34:03.080Z,13.40
2017-10-26T06:36:36.773Z,13.40
2017-10-26T06:39:10.618Z,13.40
2017-10-26T06:41:44.241Z,13.40
2017-10-26T06:44:18.016Z,13.40
2017-10-26T06:46:51.761Z,13.40
2017-10-26T06:49:25.565Z,13.40
2017-10-26T06:51:59.566Z,13.40
2017-10-26T06:54:34.060Z,13.50
2017-10-26T06:57:07.749Z,13.50
2017-10-26T06:59:41.617Z,13.50
2017-10-26T07:02:15.402Z,13.60
2017-10-26T07:04:53.952Z,13.60
2017-10-26T07:07:27.845Z,13.70
2017-10-26T07:10:01.533Z,13.80
2017-10-26T07:12:35.311Z,13.80
2017-10-26T07:15:09.127Z,14.00
2017-10-26T07:17:42.981Z,14.10
2017-10-26T07:20:16.734Z,14.20
2017-10-26T07:22:50.513Z,14.40
2017-10-26T07:25:24.140Z,14.50
2017-10-26T07:27:57.981Z,14.70
2017-10-26T07:30:31.785Z,14.80
2017-10-26T07:33:05.602Z,14.90
2017-10-26T07:35:40.246Z,14.90
2017-10-26T07:38:13.935Z,14.90
2017-10-26T07:40:47.994Z,14.80
2017-10-26T07:43:21.751Z,14.80
2017-10-26T07:45:55.478Z,14.90
2017-10-26T07:48:29.423Z,15.00
2017-10-26T07:51:03.127Z,15.40
2017-10-26T07:53:36.851Z,15.70
2017-10-26T07:56:11.474Z,16.20
2017-10-26T07:58:45.154Z,16.20
2017-10-26T08:01:18.857Z,16.20
2017-10-26T08:03:52.701Z,16.10
2017-10-26T08:06:26.391Z,16.00
2017-10-26T08:09:00.184Z,16.00
2017-10-26T08:11:33.968Z,16.20
2017-10-26T08:14:07.787Z,16.40
2017-10-26T08:16:41.399Z,16.70
2017-10-26T08:19:15.105Z,16.90
2017-10-26T08:21:49.726Z,16.90
2017-10-26T08:24:25.441Z,16.90
2017-10-26T08:26:59.307Z,16.80
2017-10-26T08:29:34.034Z,16.70
2017-10-26T08:32:07.751Z,16.60
2017-10-26T08:34:41.356Z,16.50
2017-10-26T08:37:15.129Z,16.50
2017-10-26T08:39:49.035Z,16.40
2017-10-26T08:42:23.665Z,16.50
2017-10-26T08:44:57.333Z,16.50
2017-10-26T08:47:31.207Z,16.70
2017-10-26T08:50:04.953Z,16.80
2017-10-26T08:52:38.777Z,16.80
2017-10-26T08:55:13.887Z,16.80
2017-10-26T08:57:47.652Z,16.80
2017-10-26T09:00:21.306Z,16.70
2017-10-26T09:02:55.586Z,16.60
2017-10-26T09:05:29.372Z,16.60
2017-10-26T09:08:03.848Z,16.60
2017-10-26T09:10:37.766Z,16.50
2017-10-26T09:13:11.537Z,16.60
2017-10-26T09:15:45.334Z,16.60
2017-10-26T09:18:19.222Z,16.60
2017-10-26T09:20:53.095Z,16.50
2017-10-26T09:23:26.939Z,15.60
2017-10-26T09:26:00.609Z,16.60
2017-10-26T09:28:34.440Z,16.70
2017-10-26T09:31:08.165Z,16.90
2017-10-26T09:33:41.978Z,17.20
2017-10-26T09:36:17.184Z,17.40
2017-10-26T09:38:50.870Z,17.40
2017-10-26T09:41:24.605Z,17.60
2017-10-26T09:43:59.162Z,17.60
2017-10-26T09:46:32.903Z,17.50
2017-10-26T09:49:07.399Z,17.60
2017-10-26T09:51:41.177Z,17.50
2017-10-26T09:54:15.017Z,17.70
2017-10-26T09:56:49.546Z,17.70
2017-10-26T09:59:23.156Z,17.60
2017-10-26T10:01:57.879Z,17.30
2017-10-26T10:04:31.625Z,17.30
2017-10-26T10:07:05.572Z,17.30
2017-10-26T10:09:39.206Z,17.20
2017-10-26T10:12:12.975Z,17.20
2017-10-26T10:14:46.753Z,17.20
2017-10-26T10:17:20.801Z,17.10
2017-10-26T10:19:54.676Z,17.20
2017-10-26T10:22:28.513Z,17.20
2017-10-26T10:25:02.236Z,17.30
2017-10-26T10:27:36.854Z,17.40
2017-10-26T10:30:10.547Z,17.40
2017-10-26T10:32:45.076Z,17.60
2017-10-26T10:35:18.954Z,17.60
2017-10-26T10:37:52.761Z,17.70
2017-10-26T10:40:26.605Z,17.70
2017-10-26T10:43:00.518Z,17.60
2017-10-26T10:45:34.202Z,17.60
2017-10-26T10:48:07.913Z,17.40
2017-10-26T10:50:41.755Z,17.40
2017-10-26T10:53:15.461Z,17.30
2017-10-26T10:55:50.105Z,17.00
2017-10-26T10:58:23.790Z,17.00
2017-10-26T11:00:57.620Z,16.90
2017-10-26T11:03:31.242Z,15.90
2017-10-26T11:06:04.997Z,17.30
2017-10-26T11:08:39.454Z,17.60
2017-10-26T11:11:15.408Z,17.70
2017-10-26T11:13:49.323Z,17.90
2017-10-26T11:16:23.025Z,17.80
2017-10-26T11:18:56.794Z,17.90
2017-10-26T11:21:30.921Z,17.90
2017-10-26T11:24:04.657Z,17.90
2017-10-26T11:26:38.461Z,18.00
2017-10-26T11:29:12.260Z,18.10
2017-10-26T11:31:46.055Z,18.10
2017-10-26T11:34:20.515Z,18.00
2017-10-26T11:36:55.175Z,18.10
2017-10-26T11:39:29.019Z,18.30
2017-10-26T11:42:02.895Z,18.70
2017-10-26T11:44:36.676Z,18.80
2017-10-26T11:47:10.411Z,18.80
2017-10-26T11:49:44.138Z,18.80
2017-10-26T11:52:18.639Z,18.80
2017-10-26T11:54:52.366Z,18.80
2017-10-26T11:57:26.146Z,18.80
2017-10-26T12:00:00.036Z,18.90
2017-10-26T12:02:33.817Z,18.90
2017-10-26T12:05:07.691Z,18.80
2017-10-26T12:07:41.813Z,18.70
2017-10-26T12:10:16.340Z,18.70
2017-10-26T12:15:26.453Z,18.40
2017-10-26T12:18:00.290Z,18.30
2017-10-26T12:20:33.970Z,18.20
2017-10-26T12:23:08.508Z,18.10
2017-10-26T12:25:43.010Z,18.00
2017-10-26T12:28:17.547Z,18.10
2017-10-26T12:30:51.433Z,18.00
2017-10-26T12:33:25.699Z,18.00
2017-10-26T12:35:59.515Z,18.00
2017-10-26T12:38:33.926Z,18.10
2017-10-26T12:41:08.450Z,18.00
2017-10-26T12:43:42.394Z,18.10
2017-10-26T12:46:15.985Z,18.00
2017-10-26T12:48:49.782Z,18.10
2017-10-26T12:51:24.350Z,18.40
2017-10-26T12:53:58.198Z,18.60
2017-10-26T12:56:31.790Z,18.90
2017-10-26T12:59:05.695Z,19.00
2017-10-26T13:01:39.465Z,19.10
2017-10-26T13:04:13.194Z,19.10
2017-10-26T13:06:48.577Z,18.90
2017-10-26T13:09:23.069Z,18.80
2017-10-26T13:11:56.871Z,18.70
2017-10-26T13:14:30.618Z,18.70
2017-10-26T13:17:04.511Z,18.60
2017-10-26T13:19:38.360Z,18.60
2017-10-26T13:22:12.121Z,18.60
2017-10-26T13:24:46.198Z,18.50
2017-10-26T13:27:20.055Z,18.40
2017-10-26T13:29:53.809Z,18.40
2017-10-26T13:32:27.517Z,18.40
2017-10-26T13:35:01.270Z,18.40
2017-10-26T13:37:35.038Z,18.40
2017-10-26T13:40:09.142Z,18.30
2017-10-26T13:42:43.734Z,18.20
2017-10-26T13:45:17.550Z,18.20
2017-10-26T13:47:52.025Z,18.10
2017-10-26T13:50:25.905Z,18.10
2017-10-26T13:53:00.544Z,18.00
2017-10-26T13:55:34.445Z,18.10
2017-10-26T13:58:08.435Z,18.20
2017-10-26T14:00:42.055Z,18.10
2017-10-26T14:03:15.770Z,18.10
2017-10-26T14:05:49.524Z,18.10
2017-10-26T14:08:24.063Z,18.00
2017-10-26T14:10:57.766Z,18.00
2017-10-26T14:13:31.559Z,17.80
2017-10-26T14:16:06.697Z,17.70
2017-10-26T14:18:40.310Z,17.70
2017-10-26T14:21:14.014Z,17.70
2017-10-26T14:23:48.503Z,17.90
2017-10-26T14:26:22.296Z,18.10
2017-10-26T14:28:56.859Z,18.20
2017-10-26T14:31:30.417Z,18.10
2017-10-26T14:34:04.314Z,18.10
2017-10-26T14:36:37.965Z,18.10
2017-10-26T14:39:12.414Z,18.00
2017-10-26T14:41:46.892Z,17.90
2017-10-26T14:44:21.536Z,17.80
2017-10-26T14:46:56.124Z,17.70
2017-10-26T14:49:29.909Z,17.70
2017-10-26T14:52:03.751Z,17.60
2017-10-26T14:54:37.583Z,17.50
2017-10-26T14:57:11.566Z,17.50
2017-10-26T14:59:46.113Z,17.40
2017-10-26T15:02:19.713Z,17.40
2017-10-26T15:04:53.448Z,17.30
2017-10-26T15:07:27.591Z,17.20
2017-10-26T15:10:02.195Z,17.20
2017-10-26T15:12:37.637Z,17.20
2017-10-26T15:15:12.226Z,17.10
2017-10-26T15:17:45.914Z,17.10
2017-10-26T15:20:19.710Z,17.10
2017-10-26T15:22:53.490Z,17.00
2017-10-26T15:25:27.329Z,17.00
2017-10-26T15:28:01.104Z,17.00
2017-10-26T15:30:34.863Z,16.90
2017-10-26T15:33:09.429Z,16.90
2017-10-26T15:35:43.200Z,16.90
2017-10-26T15:38:16.942Z,16.80
2017-10-26T15:40:50.736Z,16.90
2017-10-26T15:43:24.490Z,16.80
2017-10-26T15:45:58.365Z,16.80
2017-10-26T15:48:32.104Z,16.80
2017-10-26T15:51:05.837Z,16.80
2017-10-26T15:53:40.335Z,16.70
2017-10-26T15:56:14.061Z,16.70
2017-10-26T15:58:47.781Z,16.60
2017-10-26T16:01:21.637Z,16.60
2017-10-26T16:03:55.433Z,16.60
2017-10-26T16:06:29.182Z,16.60
2017-10-26T16:09:02.934Z,16.50
2017-10-26T16:11:36.548Z,16.50
2017-10-26T16:14:11.055Z,16.50
2017-10-26T16:16:44.839Z,16.40
2017-10-26T16:19:18.684Z,16.30
2017-10-26T16:21:52.908Z,16.30
2017-10-26T16:24:26.708Z,16.20
2017-10-26T16:27:00.386Z,16.20
2017-10-26T16:29:34.071Z,16.20
2017-10-26T16:32:07.860Z,16.20
2017-10-26T16:34:41.613Z,16.20
2017-10-26T16:37:15.565Z,16.20
2017-10-26T16:39:49.368Z,16.20
2017-10-26T16:42:23.157Z,16.20
2017-10-26T16:44:58.391Z,16.10
2017-10-26T16:47:32.314Z,16.10
2017-10-26T16:50:06.051Z,16.10
2017-10-26T16:52:39.874Z,16.00
2017-10-26T16:55:13.706Z,16.00
2017-10-26T16:57:47.574Z,16.00
2017-10-26T17:00:21.333Z,16.00
2017-10-26T17:02:55.125Z,16.00
2017-10-26T17:05:28.829Z,16.00
2017-10-26T17:08:03.352Z,15.90
2017-10-26T17:10:37.225Z,15.90
2017-10-26T17:13:11.016Z,15.90
2017-10-26T17:15:44.802Z,15.90
2017-10-26T17:18:18.432Z,16.70
2017-10-26T17:20:52.306Z,15.80
2017-10-26T17:23:26.709Z,15.80
2017-10-26T17:26:01.115Z,15.80
2017-10-26T17:28:35.534Z,13.40
2017-10-26T17:31:09.308Z,15.80
2017-10-26T17:33:44.701Z,15.80
2017-10-26T17:36:19.135Z,15.80
2017-10-26T17:38:53.077Z,15.80
2017-10-26T17:41:27.662Z,15.80
2017-10-26T17:44:01.338Z,15.70
2017-10-26T17:46:35.105Z,15.70
2017-10-26T17:49:09.245Z,15.70
2017-10-26T17:51:44.589Z,15.70
2017-10-26T17:54:20.050Z,15.70
2017-10-26T17:56:53.991Z,15.70
2017-10-26T17:59:27.767Z,15.60
2017-10-26T18:02:03.516Z,15.60
2017-10-26T18:04:37.341Z,15.60
2017-10-26T18:07:11.086Z,15.60
2017-10-26T18:09:44.991Z,15.60
2017-10-26T18:12:18.721Z,15.60
2017-10-26T18:14:52.577Z,15.60
2017-10-26T18:17:26.385Z,15.60
2017-10-26T18:20:00.306Z,15.60
2017-10-26T18:22:34.355Z,15.60
2017-10-26T18:25:08.215Z,15.60
2017-10-26T18:27:42.218Z,15.60
2017-10-26T18:30:16.165Z,15.60
2017-10-26T18:32:49.913Z,15.60
2017-10-26T18:35:23.716Z,15.60
2017-10-26T18:37:57.647Z,15.60
2017-10-26T18:40:32.105Z,15.50
2017-10-26T18:43:07.293Z,15.50
2017-10-26T18:45:40.872Z,15.40
2017-10-26T18:48:14.717Z,15.50
2017-10-26T18:50:48.596Z,15.50
2017-10-26T18:53:22.461Z,14.50
2017-10-26T18:55:57.065Z,15.30
2017-10-26T18:58:31.625Z,15.30
2017-10-26T19:01:06.140Z,15.30
2017-10-26T19:03:39.880Z,16.40
2017-10-26T19:06:14.543Z,15.20
2017-10-26T19:08:48.267Z,15.20
2017-10-26T19:11:22.089Z,15.20
2017-10-26T19:13:55.709Z,15.20
2017-10-26T19:16:29.636Z,15.20
2017-10-26T19:19:03.394Z,15.20
2017-10-26T19:21:37.265Z,15.20
2017-10-26T19:24:11.792Z,15.20
2017-10-26T19:26:45.526Z,15.20
2017-10-26T19:29:19.221Z,15.20
2017-10-26T19:31:54.762Z,15.20
2017-10-26T19:34:28.497Z,15.20
2017-10-26T19:37:02.171Z,15.20
2017-10-26T19:39:38.043Z,15.20
2017-10-26T19:42:12.919Z,15.20
2017-10-26T19:44:46.782Z,15.20
2017-10-26T19:47:20.941Z,15.20
2017-10-26T19:49:54.761Z,15.20
2017-10-26T19:52:29.346Z,15.20
2017-10-26T19:55:03.336Z,15.20
2017-10-26T19:57:37.206Z,15.20
2017-10-26T20:00:12.324Z,15.20
2017-10-26T20:02:46.093Z,15.20
2017-10-26T20:05:19.929Z,15.20
2017-10-26T20:07:53.715Z,15.10
2017-10-26T20:10:27.477Z,15.10
2017-10-26T20:13:03.713Z,15.10
2017-10-26T20:15:37.594Z,15.10
2017-10-26T20:18:11.336Z,15.10
2017-10-26T20:20:45.917Z,15.10
2017-10-26T20:23:20.402Z,15.10
2017-10-26T20:25:54.250Z,15.10
2017-10-26T20:28:28.006Z,15.10
2017-10-26T20:31:01.834Z,15.00
2017-10-26T20:33:35.637Z,15.00
2017-10-26T20:36:09.420Z,15.00
2017-10-26T20:38:43.233Z,15.00
2017-10-26T20:41:17.002Z,14.90
2017-10-26T20:43:50.903Z,14.90
2017-10-26T20:46:24.665Z,14.80
2017-10-26T20:48:58.505Z,14.80
2017-10-26T20:51:38.064Z,14.80
2017-10-26T20:54:17.701Z,14.80
2017-10-26T20:56:57.222Z,14.80
2017-10-26T20:59:36.806Z,14.70
2017-10-26T21:02:16.465Z,14.70
2017-10-26T21:04:56.155Z,14.70
2017-10-26T21:07:35.655Z,14.70
2017-10-26T21:10:15.283Z,14.70
2017-10-26T21:12:54.758Z,14.70
2017-10-26T21:15:28.701Z,14.60
2017-10-26T21:18:02.605Z,14.60
2017-10-26T21:20:36.309Z,14.60
2017-10-26T21:23:10.992Z,14.60
2017-10-26T21:28:19.713Z,14.60
2017-10-26T21:30:53.525Z,14.60
2017-10-26T21:33:27.274Z,14.60
2017-10-26T21:36:01.077Z,14.50
2017-10-26T21:38:35.673Z,14.50
2017-10-26T21:41:09.377Z,14.50
2017-10-26T21:43:43.197Z,14.50
2017-10-26T21:46:17.143Z,14.50
2017-10-26T21:48:50.984Z,14.50
2017-10-26T21:51:24.649Z,14.40
2017-10-26T21:53:58.411Z,14.50
2017-10-26T21:56:32.889Z,14.40
2017-10-26T21:59:06.536Z,14.40
2017-10-26T22:01:40.301Z,14.40
2017-10-26T22:04:14.227Z,14.40
2017-10-26T22:06:48.915Z,14.40
2017-10-26T22:09:23.333Z,14.40
2017-10-26T22:11:56.945Z,14.30
2017-10-26T22:14:31.830Z,14.30
2017-10-26T22:17:05.673Z,14.30
2017-10-26T22:19:39.386Z,14.30
2017-10-26T22:22:13.941Z,14.30
2017-10-26T22:24:48.433Z,14.40
2017-10-26T22:27:22.190Z,14.30
2017-10-26T22:29:55.930Z,14.30
2017-10-26T22:32:29.797Z,14.30
2017-10-26T22:35:03.607Z,14.20
2017-10-26T22:37:37.353Z,14.30
2017-10-26T22:40:11.272Z,14.30
2017-10-26T22:42:45.778Z,14.30
2017-10-26T22:45:19.723Z,14.20
2017-10-26T22:47:53.541Z,14.30
2017-10-26T22:50:27.300Z,14.30
2017-10-26T22:53:02.209Z,14.20
2017-10-26T22:55:36.122Z,14.20
2017-10-26T22:58:09.917Z,14.20
2017-10-26T23:00:43.755Z,14.10
2017-10-26T23:03:17.537Z,14.10
2017-10-26T23:05:51.509Z,14.10
2017-10-26T23:08:25.380Z,14.10
2017-10-26T23:10:59.222Z,14.00
2017-10-26T23:13:33.017Z,14.00
2017-10-26T23:16:06.882Z,14.00
2017-10-26T23:18:41.420Z,13.90
2017-10-26T23:21:15.703Z,13.90
2017-10-26T23:23:49.366Z,13.90
2017-10-26T23:26:23.336Z,13.90
2017-10-26T23:28:57.157Z,13.90
2017-10-26T23:31:31.108Z,13.90
2017-10-26T23:34:04.917Z,13.90
2017-10-26T23:36:39.506Z,13.80
2017-10-26T23:39:13.416Z,13.80
2017-10-26T23:41:47.057Z,13.80
2017-10-26T23:44:20.917Z,13.80
2017-10-26T23:46:54.734Z,13.80
2017-10-26T23:49:29.182Z,13.70
2017-10-26T23:52:03.651Z,13.80
2017-10-26T23:54:37.645Z,13.70
2017-10-26T23:57:11.331Z,13.70
2017-10-26T23:59:45.270Z,13.70
